createdAt,value
2019-02-24T00:00:08.695Z,2.77
2019-02-24T00:02:44.259Z,2.74
2019-02-24T00:05:17.110Z,2.71
2019-02-24T00:07:50.893Z,2.72
2019-02-24T00:10:24.622Z,2.67
2019-02-24T00:12:56.798Z,2.71
2019-02-24T00:15:29.927Z,2.75
2019-02-24T00:18:04.121Z,2.71
2019-02-24T00:20:37.510Z,2.65
2019-02-24T00:23:10.486Z,2.72
2019-02-24T00:25:44.465Z,2.71
2019-02-24T00:28:17.887Z,2.68
2019-02-24T00:30:51.499Z,2.74
2019-02-24T00:33:24.220Z,2.71
2019-02-24T00:35:57.298Z,2.70
2019-02-24T00:38:30.903Z,2.60
2019-02-24T00:41:04.532Z,2.51
2019-02-24T00:43:39.547Z,2.53
2019-02-24T00:46:13.851Z,2.55
2019-02-24T00:48:47.298Z,2.64
2019-02-24T00:51:20.610Z,2.58
2019-02-24T00:53:54.057Z,2.52
2019-02-24T00:56:27.091Z,2.37
2019-02-24T00:59:00.181Z,2.26
2019-02-24T01:01:34.422Z,2.16
2019-02-24T01:04:07.632Z,2.12
2019-02-24T01:06:40.911Z,2.15
2019-02-24T01:09:13.126Z,2.19
2019-02-24T01:11:46.937Z,2.23
2019-02-24T01:14:19.604Z,2.35
2019-02-24T01:16:53.092Z,2.43
2019-02-24T01:19:26.379Z,2.40
2019-02-24T01:22:00.124Z,2.34
2019-02-24T01:24:33.723Z,2.35
2019-02-24T01:27:06.749Z,2.26
2019-02-24T01:29:40.278Z,2.23
2019-02-24T01:32:13.653Z,2.22
2019-02-24T01:34:47.143Z,2.23
2019-02-24T01:37:20.710Z,2.21
2019-02-24T01:39:53.716Z,2.15
2019-02-24T01:42:26.710Z,2.16
2019-02-24T01:45:02.580Z,2.17
2019-02-24T01:47:36.079Z,2.25
2019-02-24T01:50:09.606Z,2.25
2019-02-24T01:52:42.645Z,2.26
2019-02-24T01:55:15.253Z,2.23
2019-02-24T01:57:48.358Z,2.20
2019-02-24T02:00:22.752Z,2.17
2019-02-24T02:02:56.696Z,2.15
2019-02-24T02:05:30.251Z,2.16
2019-02-24T02:08:03.625Z,2.12
2019-02-24T02:10:36.644Z,2.10
2019-02-24T02:13:09.620Z,2.09
2019-02-24T02:15:42.652Z,2.07
2019-02-24T02:18:15.925Z,2.08
2019-02-24T02:20:49.356Z,2.08
2019-02-24T02:23:21.908Z,2.05
2019-02-24T02:25:54.668Z,1.98
2019-02-24T02:28:28.283Z,1.97
2019-02-24T02:31:01.949Z,1.87
2019-02-24T02:33:36.784Z,1.93
2019-02-24T02:36:10.151Z,1.89
2019-02-24T02:38:43.176Z,1.83
2019-02-24T02:41:16.176Z,1.84
2019-02-24T02:43:49.311Z,1.86
2019-02-24T02:46:21.941Z,1.82
2019-02-24T02:48:55.052Z,1.74
2019-02-24T02:51:28.453Z,1.74
2019-02-24T02:54:01.221Z,1.73
2019-02-24T02:56:34.215Z,1.61
2019-02-24T02:59:08.197Z,1.60
2019-02-24T03:01:40.792Z,1.66
2019-02-24T03:04:13.782Z,1.62
2019-02-24T03:07:21.083Z,1.63
2019-02-24T03:09:54.063Z,1.63
2019-02-24T03:12:27.548Z,1.56
2019-02-24T03:15:00.921Z,1.59
2019-02-24T03:17:33.552Z,1.57
2019-02-24T03:20:06.859Z,1.58
2019-02-24T03:22:39.605Z,1.53
2019-02-24T03:25:14.387Z,1.52
2019-02-24T03:27:47.543Z,1.46
2019-02-24T03:30:20.938Z,1.46
2019-02-24T03:32:54.146Z,1.45
2019-02-24T03:35:27.176Z,1.43
2019-02-24T03:38:02.129Z,1.46
2019-02-24T03:40:34.768Z,1.46
2019-02-24T03:43:07.360Z,1.43
2019-02-24T03:45:40.931Z,1.34
2019-02-24T03:48:13.525Z,1.13
2019-02-24T03:50:46.453Z,1.06
2019-02-24T03:53:21.416Z,1.23
2019-02-24T03:55:55.206Z,1.39
2019-02-24T03:58:28.724Z,1.34
2019-02-24T04:01:01.805Z,1.26
2019-02-24T04:03:35.068Z,1.15
2019-02-24T04:06:08.394Z,0.91
2019-02-24T04:08:41.809Z,0.80
2019-02-24T04:11:15.293Z,0.90
2019-02-24T04:13:48.663Z,0.63
2019-02-24T04:16:22.036Z,0.53
2019-02-24T04:18:54.654Z,0.51
2019-02-24T04:21:27.667Z,0.50
2019-02-24T04:24:00.366Z,0.70
2019-02-24T04:26:33.301Z,0.89
2019-02-24T04:29:05.795Z,1.05
2019-02-24T04:31:38.472Z,1.08
2019-02-24T04:34:11.974Z,1.08
2019-02-24T04:36:45.792Z,1.07
2019-02-24T04:39:19.722Z,1.02
2019-02-24T04:41:52.807Z,0.97
2019-02-24T04:44:25.765Z,0.89
2019-02-24T04:46:59.389Z,0.91
2019-02-24T04:49:33.280Z,0.95
2019-02-24T04:52:06.902Z,0.98
2019-02-24T04:54:39.445Z,1.02
2019-02-24T04:57:13.182Z,1.02
2019-02-24T04:59:47.072Z,1.02
2019-02-24T05:02:19.639Z,1.04
2019-02-24T05:04:53.045Z,1.09
2019-02-24T05:07:26.036Z,1.07
2019-02-24T05:09:59.740Z,1.01
2019-02-24T05:12:32.765Z,1.07
2019-02-24T05:15:05.807Z,1.05
2019-02-24T05:17:39.430Z,0.96
2019-02-24T05:20:12.410Z,0.92
2019-02-24T05:22:45.715Z,0.88
2019-02-24T05:25:18.684Z,0.94
2019-02-24T05:27:51.259Z,0.92
2019-02-24T05:30:24.542Z,0.96
2019-02-24T05:32:58.064Z,0.93
2019-02-24T05:35:30.772Z,0.90
2019-02-24T05:38:03.925Z,0.89
2019-02-24T05:40:36.921Z,0.93
2019-02-24T05:43:09.123Z,0.78
2019-02-24T05:45:41.363Z,0.67
2019-02-24T05:48:16.074Z,0.54
2019-02-24T05:50:48.794Z,0.60
2019-02-24T05:53:22.583Z,0.51
2019-02-24T05:55:56.061Z,0.37
2019-02-24T05:58:29.127Z,0.31
2019-02-24T06:01:02.665Z,0.26
2019-02-24T06:03:35.946Z,0.26
2019-02-24T06:06:09.344Z,0.17
2019-02-24T06:08:42.796Z,0.08
2019-02-24T06:11:16.551Z,0.11
2019-02-24T06:13:49.130Z,0.11
2019-02-24T06:16:22.153Z,0.10
2019-02-24T06:18:56.012Z,0.14
2019-02-24T06:21:28.945Z,0.26
2019-02-24T06:24:02.314Z,0.61
2019-02-24T06:26:35.209Z,0.84
2019-02-24T06:29:08.461Z,0.76
2019-02-24T06:31:42.338Z,0.73
2019-02-24T06:34:15.373Z,0.81
2019-02-24T06:36:48.481Z,0.82
2019-02-24T06:39:21.462Z,1.07
2019-02-24T06:41:54.053Z,1.24
2019-02-24T06:44:27.560Z,1.34
2019-02-24T06:47:00.558Z,1.45
2019-02-24T06:49:34.019Z,1.46
2019-02-24T06:52:07.610Z,1.72
2019-02-24T06:54:42.811Z,2.06
2019-02-24T06:57:15.744Z,2.39
2019-02-24T06:59:48.324Z,2.38
2019-02-24T07:02:21.596Z,2.35
2019-02-24T07:04:54.305Z,2.55
2019-02-24T07:07:28.019Z,2.55
2019-02-24T07:10:02.147Z,2.42
2019-02-24T07:12:36.139Z,2.40
2019-02-24T07:15:09.730Z,2.55
2019-02-24T07:17:42.805Z,2.53
2019-02-24T07:20:16.172Z,2.49
2019-02-24T07:22:49.483Z,2.57
2019-02-24T07:25:22.922Z,2.48
2019-02-24T07:27:56.006Z,2.33
2019-02-24T07:30:29.066Z,2.35
2019-02-24T07:33:02.607Z,2.37
2019-02-24T07:35:35.396Z,2.34
2019-02-24T07:38:08.514Z,2.34
2019-02-24T07:40:41.932Z,2.28
2019-02-24T07:43:15.538Z,2.52
2019-02-24T07:45:48.688Z,2.58
2019-02-24T07:48:22.094Z,2.64
2019-02-24T07:50:56.593Z,2.71
2019-02-24T07:53:30.444Z,2.96
2019-02-24T07:56:03.506Z,3.18
2019-02-24T07:58:36.635Z,3.51
2019-02-24T08:01:09.969Z,3.21
2019-02-24T08:03:43.954Z,3.43
2019-02-24T08:06:17.377Z,3.58
2019-02-24T08:08:50.474Z,3.54
2019-02-24T08:11:24.437Z,3.59
2019-02-24T08:14:00.867Z,3.63
2019-02-24T08:16:34.717Z,3.59
2019-02-24T08:19:09.196Z,3.64
2019-02-24T08:21:43.130Z,3.74
2019-02-24T08:24:16.048Z,3.80
2019-02-24T08:26:49.408Z,3.51
2019-02-24T08:29:22.734Z,3.63
2019-02-24T08:31:56.159Z,3.79
2019-02-24T08:34:29.325Z,4.22
2019-02-24T08:37:02.759Z,4.11
2019-02-24T08:39:36.454Z,3.92
2019-02-24T08:42:10.382Z,3.97
2019-02-24T08:44:44.350Z,3.96
2019-02-24T08:47:17.665Z,4.20
2019-02-24T08:49:51.590Z,4.47
2019-02-24T08:52:23.910Z,4.54
2019-02-24T08:54:57.390Z,4.69
2019-02-24T08:57:30.873Z,4.73
2019-02-24T09:00:05.202Z,4.74
2019-02-24T09:02:40.923Z,4.78
2019-02-24T09:05:14.829Z,4.76
2019-02-24T09:07:47.801Z,4.92
2019-02-24T09:10:20.530Z,5.24
2019-02-24T09:12:53.894Z,5.87
2019-02-24T09:15:27.301Z,6.57
2019-02-24T09:18:00.822Z,6.77
2019-02-24T09:20:34.598Z,6.19
2019-02-24T09:23:07.182Z,6.37
2019-02-24T09:25:41.304Z,5.99
2019-02-24T09:28:14.263Z,6.38
2019-02-24T09:30:47.378Z,6.70
2019-02-24T09:33:21.586Z,6.15
2019-02-24T09:35:55.079Z,6.98
2019-02-24T09:38:28.953Z,8.71
2019-02-24T09:41:02.525Z,8.37
2019-02-24T09:43:36.231Z,9.01
2019-02-24T09:46:09.287Z,9.80
2019-02-24T09:48:42.027Z,11.75
2019-02-24T09:51:15.473Z,12.27
2019-02-24T09:53:48.685Z,12.52
2019-02-24T09:56:21.730Z,13.07
2019-02-24T09:58:55.028Z,12.67
2019-02-24T10:01:34.916Z,14.89
2019-02-24T10:04:08.460Z,14.74
2019-02-24T10:06:41.995Z,15.39
2019-02-24T10:09:17.233Z,16.05
2019-02-24T10:11:49.997Z,15.40
2019-02-24T10:14:23.410Z,13.75
2019-02-24T10:16:57.070Z,13.84
2019-02-24T10:19:31.260Z,15.11
2019-02-24T10:22:05.800Z,14.36
2019-02-24T10:24:39.568Z,16.94
2019-02-24T10:27:13.278Z,15.08
2019-02-24T10:29:46.447Z,15.22
2019-02-24T10:32:19.856Z,15.92
2019-02-24T10:34:52.143Z,17.64
2019-02-24T10:37:26.221Z,18.56
2019-02-24T10:39:59.757Z,16.29
2019-02-24T10:42:32.995Z,16.86
2019-02-24T10:45:07.936Z,17.37
2019-02-24T10:47:41.774Z,16.45
2019-02-24T10:50:14.578Z,17.19
2019-02-24T10:52:48.081Z,16.70
2019-02-24T10:55:21.786Z,18.11
2019-02-24T10:57:54.888Z,17.53
2019-02-24T11:00:30.212Z,18.08
2019-02-24T11:03:03.409Z,18.37
2019-02-24T11:05:37.066Z,18.40
2019-02-24T11:08:11.914Z,17.44
2019-02-24T11:10:45.471Z,18.19
2019-02-24T11:13:18.509Z,18.95
2019-02-24T11:15:51.716Z,18.95
2019-02-24T11:18:25.169Z,17.73
2019-02-24T11:21:00.390Z,17.73
2019-02-24T11:23:35.161Z,19.49
2019-02-24T11:26:08.599Z,20.85
2019-02-24T11:28:41.497Z,21.10
2019-02-24T11:31:15.295Z,20.38
2019-02-24T11:33:50.215Z,19.32
2019-02-24T11:36:23.381Z,20.96
2019-02-24T11:38:56.884Z,20.95
2019-02-24T11:41:30.955Z,21.41
2019-02-24T11:44:03.661Z,18.27
2019-02-24T11:46:37.272Z,20.50
2019-02-24T11:49:10.550Z,20.63
2019-02-24T11:51:43.592Z,20.98
2019-02-24T11:54:16.678Z,21.72
2019-02-24T11:56:49.915Z,20.80
2019-02-24T11:59:24.766Z,19.15
2019-02-24T12:01:57.866Z,19.90
2019-02-24T12:04:31.442Z,22.95
2019-02-24T12:07:04.993Z,21.15
2019-02-24T12:09:38.228Z,22.17
2019-02-24T12:12:11.918Z,19.18
2019-02-24T12:14:45.225Z,19.18
2019-02-24T12:17:18.457Z,19.35
2019-02-24T12:19:52.501Z,18.79
2019-02-24T12:22:25.529Z,18.79
2019-02-24T12:25:04.716Z,19.69
2019-02-24T12:27:37.810Z,19.40
2019-02-24T12:30:11.479Z,19.30
2019-02-24T12:32:44.856Z,19.30
2019-02-24T12:35:17.611Z,19.29
2019-02-24T12:37:50.274Z,20.11
2019-02-24T12:40:23.616Z,20.11
2019-02-24T12:42:58.852Z,20.63
2019-02-24T12:45:32.881Z,20.63
2019-02-24T12:48:06.278Z,20.57
2019-02-24T12:50:42.544Z,21.26
2019-02-24T12:53:16.000Z,21.00
2019-02-24T12:55:50.212Z,21.11
2019-02-24T12:58:27.331Z,19.95
2019-02-24T13:01:04.526Z,20.73
2019-02-24T13:03:37.949Z,20.73
2019-02-24T13:06:11.715Z,20.35
2019-02-24T13:08:45.855Z,20.36
2019-02-24T13:11:18.956Z,20.36
2019-02-24T13:13:52.726Z,18.67
2019-02-24T13:16:26.211Z,18.67
2019-02-24T13:18:59.549Z,20.76
2019-02-24T13:21:33.986Z,18.96
2019-02-24T13:24:07.164Z,18.96
2019-02-24T13:26:40.448Z,20.08
2019-02-24T13:29:13.906Z,18.11
2019-02-24T13:31:47.425Z,18.84
2019-02-24T13:34:20.139Z,18.84
2019-02-24T13:36:54.221Z,17.04
2019-02-24T13:39:29.047Z,16.58
2019-02-24T13:42:02.187Z,17.11
2019-02-24T13:44:34.925Z,18.37
2019-02-24T13:47:08.263Z,17.38
2019-02-24T13:49:43.028Z,17.92
2019-02-24T13:52:16.743Z,18.06
2019-02-24T13:54:50.504Z,16.84
2019-02-24T13:57:24.387Z,16.36
2019-02-24T13:59:58.238Z,18.33
2019-02-24T14:02:31.069Z,19.32
2019-02-24T14:05:04.395Z,20.13
2019-02-24T14:07:37.973Z,18.96
2019-02-24T14:10:12.757Z,16.92
2019-02-24T14:12:46.394Z,16.60
2019-02-24T14:15:19.806Z,16.00
2019-02-24T14:17:53.727Z,17.91
2019-02-24T14:20:27.576Z,18.04
2019-02-24T14:23:00.296Z,16.59
2019-02-24T14:25:33.404Z,15.84
2019-02-24T14:28:06.795Z,15.94
2019-02-24T14:30:40.377Z,16.22
2019-02-24T14:33:13.871Z,17.01
2019-02-24T14:35:46.548Z,16.65
2019-02-24T14:38:19.943Z,17.42
2019-02-24T14:40:53.505Z,17.76
2019-02-24T14:43:26.899Z,18.07
2019-02-24T14:46:00.418Z,18.30
2019-02-24T14:48:35.272Z,18.71
2019-02-24T14:51:08.366Z,17.38
2019-02-24T14:53:42.495Z,17.92
2019-02-24T14:56:15.159Z,18.45
2019-02-24T14:58:48.532Z,18.36
2019-02-24T15:01:22.693Z,18.36
2019-02-24T15:03:55.779Z,18.23
2019-02-24T15:06:31.454Z,17.66
2019-02-24T15:09:04.434Z,18.14
2019-02-24T15:11:40.329Z,18.12
2019-02-24T15:14:13.752Z,17.81
2019-02-24T15:16:46.853Z,17.47
2019-02-24T15:19:19.872Z,17.55
2019-02-24T15:21:54.212Z,17.59
2019-02-24T15:24:27.332Z,17.82
2019-02-24T15:27:01.092Z,17.92
2019-02-24T15:29:35.824Z,17.65
2019-02-24T15:32:08.798Z,17.25
2019-02-24T15:34:42.275Z,17.10
2019-02-24T15:37:17.072Z,16.91
2019-02-24T15:39:57.795Z,16.44
2019-02-24T15:42:41.293Z,16.46
2019-02-24T15:45:21.673Z,16.11
2019-02-24T15:48:04.828Z,15.82
2019-02-24T15:50:43.399Z,15.64
2019-02-24T15:53:16.443Z,15.53
2019-02-24T15:55:53.298Z,15.51
2019-02-24T15:58:30.864Z,15.41
2019-02-24T16:01:12.592Z,15.26
2019-02-24T16:03:47.039Z,15.26
2019-02-24T16:06:20.095Z,14.84
2019-02-24T16:08:53.204Z,14.23
2019-02-24T16:11:26.932Z,14.20
2019-02-24T16:14:01.490Z,14.17
2019-02-24T16:16:35.589Z,14.11
2019-02-24T16:19:07.846Z,13.90
2019-02-24T16:21:40.892Z,13.82
2019-02-24T16:24:13.944Z,13.43
2019-02-24T16:26:46.563Z,13.24
2019-02-24T16:29:19.540Z,13.13
2019-02-24T16:31:52.188Z,12.83
2019-02-24T16:34:26.028Z,12.62
2019-02-24T16:36:58.746Z,12.38
2019-02-24T16:39:32.079Z,12.16
2019-02-24T16:42:05.192Z,12.04
2019-02-24T16:44:38.624Z,11.84
2019-02-24T16:47:12.104Z,11.69
2019-02-24T16:49:45.775Z,11.45
2019-02-24T16:52:19.106Z,11.25
2019-02-24T16:54:54.171Z,11.06
2019-02-24T16:57:27.208Z,10.87
2019-02-24T17:00:01.032Z,10.62
2019-02-24T17:02:35.597Z,10.37
2019-02-24T17:05:09.053Z,10.28
2019-02-24T17:07:41.992Z,10.13
2019-02-24T17:10:17.116Z,10.01
2019-02-24T17:12:50.251Z,9.85
2019-02-24T17:15:23.642Z,9.75
2019-02-24T17:17:57.509Z,9.61
2019-02-24T17:20:31.082Z,9.44
2019-02-24T17:23:04.802Z,9.40
2019-02-24T17:25:37.472Z,9.27
2019-02-24T17:28:10.688Z,9.25
2019-02-24T17:30:43.408Z,9.21
2019-02-24T17:33:16.124Z,9.06
2019-02-24T17:35:49.195Z,9.00
2019-02-24T17:38:23.111Z,9.05
2019-02-24T17:40:56.780Z,8.98
2019-02-24T17:43:30.611Z,8.94
2019-02-24T17:46:04.623Z,8.82
2019-02-24T17:48:38.139Z,8.79
2019-02-24T17:51:20.621Z,8.79
2019-02-24T17:53:47.295Z,8.64
2019-02-24T17:56:20.331Z,8.65
2019-02-24T17:58:53.832Z,8.80
2019-02-24T18:01:28.377Z,8.75
2019-02-24T18:04:01.023Z,8.65
2019-02-24T18:06:34.719Z,8.48
2019-02-24T18:09:08.747Z,8.36
2019-02-24T18:11:42.287Z,8.65
2019-02-24T18:14:16.053Z,8.82
2019-02-24T18:16:49.403Z,8.75
2019-02-24T18:19:23.217Z,8.46
2019-02-24T18:21:56.387Z,8.47
2019-02-24T18:24:29.986Z,8.40
2019-02-24T18:27:03.202Z,8.34
2019-02-24T18:29:37.079Z,8.36
2019-02-24T18:32:10.506Z,8.23
2019-02-24T18:34:44.124Z,8.39
2019-02-24T18:37:16.538Z,8.37
2019-02-24T18:39:52.310Z,8.15
2019-02-24T18:42:25.425Z,7.93
2019-02-24T18:44:58.448Z,7.89
2019-02-24T18:47:31.922Z,7.96
2019-02-24T18:50:06.056Z,7.87
2019-02-24T18:52:39.245Z,7.90
2019-02-24T18:55:12.469Z,7.88
2019-02-24T18:57:45.505Z,7.97
2019-02-24T19:00:19.151Z,7.75
2019-02-24T19:02:54.818Z,7.78
2019-02-24T19:05:27.732Z,8.02
2019-02-24T19:08:00.594Z,8.23
2019-02-24T19:10:33.189Z,8.32
2019-02-24T19:13:06.692Z,8.25
2019-02-24T19:15:39.430Z,8.12
2019-02-24T19:18:12.544Z,8.32
2019-02-24T19:20:45.263Z,8.22
2019-02-24T19:23:18.074Z,8.40
2019-02-24T19:25:51.505Z,8.38
2019-02-24T19:28:24.993Z,8.30
2019-02-24T19:30:58.340Z,8.19
2019-02-24T19:33:32.364Z,8.06
2019-02-24T19:36:05.761Z,8.28
2019-02-24T19:38:39.626Z,8.64
2019-02-24T19:41:13.200Z,8.77
2019-02-24T19:43:46.737Z,8.94
2019-02-24T19:46:19.647Z,8.91
2019-02-24T19:48:52.297Z,8.81
2019-02-24T19:51:28.331Z,8.65
2019-02-24T19:54:02.267Z,8.56
2019-02-24T19:56:34.915Z,8.78
2019-02-24T19:59:07.923Z,8.79
2019-02-24T20:01:41.506Z,8.82
2019-02-24T20:04:16.202Z,8.85
2019-02-24T20:06:49.874Z,8.98
2019-02-24T20:09:23.342Z,8.93
2019-02-24T20:11:56.415Z,8.89
2019-02-24T20:14:29.566Z,8.94
2019-02-24T20:17:03.366Z,8.87
2019-02-24T20:19:37.117Z,8.81
2019-02-24T20:22:10.849Z,8.96
2019-02-24T20:24:44.279Z,8.93
2019-02-24T20:27:17.439Z,8.96
2019-02-24T20:29:51.253Z,8.88
2019-02-24T20:32:24.351Z,8.81
2019-02-24T20:34:57.712Z,8.79
2019-02-24T20:37:31.147Z,8.84
2019-02-24T20:40:04.427Z,8.83
2019-02-24T20:42:37.547Z,8.62
2019-02-24T20:45:11.965Z,8.56
2019-02-24T20:47:45.941Z,8.41
2019-02-24T20:50:19.492Z,8.25
2019-02-24T20:52:53.039Z,8.13
2019-02-24T20:55:26.203Z,8.09
2019-02-24T20:57:59.247Z,8.06
2019-02-24T21:00:34.895Z,7.90
2019-02-24T21:03:08.645Z,7.76
2019-02-24T21:05:41.439Z,7.47
2019-02-24T21:08:14.858Z,7.19
2019-02-24T21:10:47.678Z,7.24
2019-02-24T21:13:21.373Z,7.36
2019-02-24T21:15:54.471Z,7.40
2019-02-24T21:18:27.165Z,7.39
2019-02-24T21:21:00.743Z,7.30
2019-02-24T21:23:33.860Z,7.40
2019-02-24T21:26:07.062Z,7.28
2019-02-24T21:28:40.225Z,7.03
2019-02-24T21:31:13.436Z,6.92
2019-02-24T21:33:46.892Z,6.94
2019-02-24T21:36:20.709Z,6.83
2019-02-24T21:38:54.287Z,6.66
2019-02-24T21:41:27.357Z,6.55
2019-02-24T21:44:00.699Z,6.38
2019-02-24T21:46:34.547Z,6.25
2019-02-24T21:49:08.280Z,6.28
2019-02-24T21:51:41.328Z,6.20
2019-02-24T21:54:15.583Z,5.95
2019-02-24T21:56:49.027Z,5.81
2019-02-24T21:59:23.522Z,5.89
2019-02-24T22:01:57.034Z,5.95
2019-02-24T22:04:30.334Z,5.83
2019-02-24T22:07:03.755Z,5.98
2019-02-24T22:09:37.343Z,5.90
2019-02-24T22:12:11.227Z,5.88
2019-02-24T22:14:45.109Z,5.77
2019-02-24T22:17:18.125Z,5.69
2019-02-24T22:19:51.225Z,6.10
2019-02-24T22:22:24.258Z,6.35
2019-02-24T22:24:57.291Z,6.34
2019-02-24T22:27:30.676Z,6.47
2019-02-24T22:30:03.660Z,6.82
2019-02-24T22:32:38.432Z,6.82
2019-02-24T22:35:12.311Z,6.77
2019-02-24T22:37:45.290Z,6.70
2019-02-24T22:40:17.539Z,6.58
2019-02-24T22:42:53.102Z,6.60
2019-02-24T22:45:25.687Z,6.47
2019-02-24T22:47:59.002Z,6.44
2019-02-24T22:50:32.086Z,6.25
2019-02-24T22:53:04.768Z,6.12
2019-02-24T22:55:37.506Z,5.87
2019-02-24T22:58:10.322Z,5.90
2019-02-24T23:01:09.861Z,5.81
2019-02-24T23:03:46.058Z,5.61
2019-02-24T23:06:19.590Z,5.48
2019-02-24T23:08:53.596Z,5.51
2019-02-24T23:11:26.944Z,5.44
2019-02-24T23:14:00.709Z,5.35
2019-02-24T23:16:33.468Z,5.26
2019-02-24T23:19:06.864Z,5.31
2019-02-24T23:21:39.941Z,5.27
2019-02-24T23:24:13.279Z,5.24
2019-02-24T23:26:46.711Z,5.16
2019-02-24T23:29:20.260Z,5.37
2019-02-24T23:31:54.065Z,5.40
2019-02-24T23:34:27.105Z,5.41
2019-02-24T23:37:00.457Z,5.34
2019-02-24T23:39:34.009Z,5.52
2019-02-24T23:42:07.441Z,5.51
2019-02-24T23:44:41.273Z,5.56
2019-02-24T23:47:14.348Z,5.37
2019-02-24T23:49:47.766Z,5.39
2019-02-24T23:52:20.364Z,5.38
2019-02-24T23:54:53.380Z,5.39
2019-02-24T23:57:27.059Z,5.26
